sensor_id;sensor_type;location;lat;lon;timestamp;P1;durP1;ratioP1;P2;durP2;ratioP2
15814;SDS011;8008;50.024;8.172;2022-09-20T03:01:37;8.57;;;2.85;;
15814;SDS011;8008;50.024;8.172;2022-09-20T03:04:16;10.82;;;3.10;;
15814;SDS011;8008;50.024;8.172;2022-09-20T03:06:54;12.18;;;3.67;;
15814;SDS011;8008;50.024;8.172;2022-09-20T03:09:30;8.88;;;3.85;;
15814;SDS011;8008;50.024;8.172;2022-09-20T03:12:03;8.13;;;4.05;;
15814;SDS011;8008;50.024;8.172;2022-09-20T03:14:41;9.00;;;3.72;;
15814;SDS011;8008;50.024;8.172;2022-09-20T03:17:20;8.85;;;3.70;;
15814;SDS011;8008;50.024;8.172;2022-09-20T03:20:04;7.45;;;3.80;;
15814;SDS011;8008;50.024;8.172;2022-09-20T03:22:37;9.05;;;3.58;;
15814;SDS011;8008;50.024;8.172;2022-09-20T03:25:20;6.93;;;3.63;;
15814;SDS011;8008;50.024;8.172;2022-09-20T03:28:00;5.07;;;3.53;;
15814;SDS011;8008;50.024;8.172;2022-09-20T03:30:38;6.70;;;3.60;;
15814;SDS011;8008;50.024;8.172;2022-09-20T03:33:22;6.80;;;3.50;;
15814;SDS011;8008;50.024;8.172;2022-09-20T03:36:03;8.48;;;3.38;;
15814;SDS011;8008;50.024;8.172;2022-09-20T03:38:53;6.15;;;3.10;;
15814;SDS011;8008;50.024;8.172;2022-09-20T03:41:45;7.22;;;3.30;;
15814;SDS011;8008;50.024;8.172;2022-09-20T03:44:23;5.65;;;3.10;;
15814;SDS011;8008;50.024;8.172;2022-09-20T03:47:13;6.18;;;2.70;;
15814;SDS011;8008;50.024;8.172;2022-09-20T03:50:08;9.63;;;3.05;;
15814;SDS011;8008;50.024;8.172;2022-09-20T03:53:04;8.20;;;2.70;;
15814;SDS011;8008;50.024;8.172;2022-09-20T03:58:54;5.80;;;2.63;;
15814;SDS011;8008;50.024;8.172;2022-09-20T04:01:39;4.18;;;2.08;;
15814;SDS011;8008;50.024;8.172;2022-09-20T04:04:18;5.55;;;2.00;;
15814;SDS011;8008;50.024;8.172;2022-09-20T04:06:56;8.73;;;2.13;;
15814;SDS011;8008;50.024;8.172;2022-09-20T04:09:50;4.10;;;1.90;;
15814;SDS011;8008;50.024;8.172;2022-09-20T04:12:28;6.65;;;2.00;;
15814;SDS011;8008;50.024;8.172;2022-09-20T04:15:08;8.02;;;2.00;;
15814;SDS011;8008;50.024;8.172;2022-09-20T04:17:54;5.20;;;2.10;;
15814;SDS011;8008;50.024;8.172;2022-09-20T04:20:29;3.97;;;1.85;;
15814;SDS011;8008;50.024;8.172;2022-09-20T04:23:10;6.05;;;1.90;;
15814;SDS011;8008;50.024;8.172;2022-09-20T04:25:45;4.18;;;2.00;;
15814;SDS011;8008;50.024;8.172;2022-09-20T04:28:16;4.88;;;2.10;;
15814;SDS011;8008;50.024;8.172;2022-09-20T04:30:50;6.28;;;1.90;;
15814;SDS011;8008;50.024;8.172;2022-09-20T04:33:24;6.88;;;1.98;;
15814;SDS011;8008;50.024;8.172;2022-09-20T04:35:59;6.10;;;2.00;;
15814;SDS011;8008;50.024;8.172;2022-09-20T04:39:10;5.47;;;1.80;;
15814;SDS011;8008;50.024;8.172;2022-09-20T04:44:57;5.07;;;1.80;;
15814;SDS011;8008;50.024;8.172;2022-09-20T04:47:56;4.78;;;1.85;;
15814;SDS011;8008;50.024;8.172;2022-09-20T04:50:43;5.90;;;2.03;;
15814;SDS011;8008;50.024;8.172;2022-09-20T04:56:44;4.28;;;1.67;;
15814;SDS011;8008;50.024;8.172;2022-09-20T04:59:26;6.65;;;1.85;;
15814;SDS011;8008;50.024;8.172;2022-09-20T05:02:17;3.88;;;1.90;;
15814;SDS011;8008;50.024;8.172;2022-09-20T05:08:22;6.40;;;2.10;;
15814;SDS011;8008;50.024;8.172;2022-09-20T05:14:35;7.38;;;1.90;;
15814;SDS011;8008;50.024;8.172;2022-09-20T05:17:31;7.35;;;1.83;;
15814;SDS011;8008;50.024;8.172;2022-09-20T05:20:26;6.78;;;2.05;;
15814;SDS011;8008;50.024;8.172;2022-09-20T05:23:13;4.97;;;1.80;;
15814;SDS011;8008;50.024;8.172;2022-09-20T05:28:40;6.03;;;2.20;;
15814;SDS011;8008;50.024;8.172;2022-09-20T05:31:18;7.57;;;2.65;;
15814;SDS011;8008;50.024;8.172;2022-09-20T05:33:53;3.95;;;1.90;;
15814;SDS011;8008;50.024;8.172;2022-09-20T05:36:28;6.35;;;1.92;;
15814;SDS011;8008;50.024;8.172;2022-09-20T05:39:07;5.07;;;2.35;;
15814;SDS011;8008;50.024;8.172;2022-09-20T05:41:46;4.28;;;2.08;;
15814;SDS011;8008;50.024;8.172;2022-09-20T05:44:25;6.55;;;2.33;;
15814;SDS011;8008;50.024;8.172;2022-09-20T05:46:58;3.38;;;1.90;;
15814;SDS011;8008;50.024;8.172;2022-09-20T05:49:37;7.40;;;2.30;;
15814;SDS011;8008;50.024;8.172;2022-09-20T05:52:19;8.98;;;2.65;;
15814;SDS011;8008;50.024;8.172;2022-09-20T05:55:12;11.10;;;2.55;;
15814;SDS011;8008;50.024;8.172;2022-09-20T05:58:01;5.18;;;2.00;;
15814;SDS011;8008;50.024;8.172;2022-09-20T06:00:40;8.05;;;2.17;;
15814;SDS011;8008;50.024;8.172;2022-09-20T06:03:13;6.40;;;2.40;;
15814;SDS011;8008;50.024;8.172;2022-09-20T06:05:50;13.35;;;2.22;;
15814;SDS011;8008;50.024;8.172;2022-09-20T06:08:28;8.25;;;2.45;;
15814;SDS011;8008;50.024;8.172;2022-09-20T06:11:20;7.78;;;2.58;;
15814;SDS011;8008;50.024;8.172;2022-09-20T06:14:06;8.68;;;2.42;;
15814;SDS011;8008;50.024;8.172;2022-09-20T06:17:01;7.90;;;2.20;;
15814;SDS011;8008;50.024;8.172;2022-09-20T06:19:40;7.43;;;2.42;;
15814;SDS011;8008;50.024;8.172;2022-09-20T06:22:14;9.35;;;2.90;;
15814;SDS011;8008;50.024;8.172;2022-09-20T06:24:46;5.38;;;2.70;;
15814;SDS011;8008;50.024;8.172;2022-09-20T06:27:19;4.38;;;2.20;;
15814;SDS011;8008;50.024;8.172;2022-09-20T06:29:52;5.03;;;2.20;;
15814;SDS011;8008;50.024;8.172;2022-09-20T06:32:26;9.05;;;2.33;;
15814;SDS011;8008;50.024;8.172;2022-09-20T06:34:53;7.25;;;2.45;;
15814;SDS011;8008;50.024;8.172;2022-09-20T06:37:32;4.88;;;2.10;;
15814;SDS011;8008;50.024;8.172;2022-09-20T06:40:35;6.80;;;2.20;;
15814;SDS011;8008;50.024;8.172;2022-09-20T06:43:24;7.78;;;2.30;;
15814;SDS011;8008;50.024;8.172;2022-09-20T06:45:52;8.25;;;2.40;;
15814;SDS011;8008;50.024;8.172;2022-09-20T06:48:22;9.13;;;2.22;;
15814;SDS011;8008;50.024;8.172;2022-09-20T06:50:50;5.70;;;2.25;;
15814;SDS011;8008;50.024;8.172;2022-09-20T06:53:30;5.25;;;2.50;;
15814;SDS011;8008;50.024;8.172;2022-09-20T06:55:59;6.45;;;2.17;;
15814;SDS011;8008;50.024;8.172;2022-09-20T06:58:28;5.90;;;2.03;;
15814;SDS011;8008;50.024;8.172;2022-09-20T07:00:56;5.32;;;2.05;;
15814;SDS011;8008;50.024;8.172;2022-09-20T07:03:25;6.70;;;2.20;;
15814;SDS011;8008;50.024;8.172;2022-09-20T07:05:53;5.38;;;2.20;;
15814;SDS011;8008;50.024;8.172;2022-09-20T07:08:21;6.80;;;2.33;;
15814;SDS011;8008;50.024;8.172;2022-09-20T07:10:49;5.70;;;2.20;;
15814;SDS011;8008;50.024;8.172;2022-09-20T07:13:17;8.50;;;2.50;;
15814;SDS011;8008;50.024;8.172;2022-09-20T07:15:46;5.75;;;2.33;;
15814;SDS011;8008;50.024;8.172;2022-09-20T07:18:14;8.45;;;2.50;;
15814;SDS011;8008;50.024;8.172;2022-09-20T07:20:43;6.15;;;2.45;;
15814;SDS011;8008;50.024;8.172;2022-09-20T07:23:11;6.45;;;2.40;;
15814;SDS011;8008;50.024;8.172;2022-09-20T07:25:40;7.88;;;2.70;;
15814;SDS011;8008;50.024;8.172;2022-09-20T07:28:08;4.68;;;2.85;;
15814;SDS011;8008;50.024;8.172;2022-09-20T07:30:37;8.02;;;2.80;;
15814;SDS011;8008;50.024;8.172;2022-09-20T07:33:05;8.90;;;3.15;;
15814;SDS011;8008;50.024;8.172;2022-09-20T07:35:35;6.30;;;3.22;;
15814;SDS011;8008;50.024;8.172;2022-09-20T07:38:04;6.32;;;3.20;;
15814;SDS011;8008;50.024;8.172;2022-09-20T07:40:32;7.97;;;3.25;;
15814;SDS011;8008;50.024;8.172;2022-09-20T07:42:59;11.85;;;3.20;;
15814;SDS011;8008;50.024;8.172;2022-09-20T07:45:27;6.40;;;3.03;;
15814;SDS011;8008;50.024;8.172;2022-09-20T07:47:56;8.25;;;3.33;;
15814;SDS011;8008;50.024;8.172;2022-09-20T07:50:24;4.20;;;2.90;;
15814;SDS011;8008;50.024;8.172;2022-09-20T07:52:54;5.20;;;3.20;;
15814;SDS011;8008;50.024;8.172;2022-09-20T07:55:23;6.95;;;3.33;;
15814;SDS011;8008;50.024;8.172;2022-09-20T07:57:51;6.07;;;3.05;;
15814;SDS011;8008;50.024;8.172;2022-09-20T08:00:20;6.38;;;3.20;;
15814;SDS011;8008;50.024;8.172;2022-09-20T08:02:55;8.85;;;3.30;;
15814;SDS011;8008;50.024;8.172;2022-09-20T08:05:25;10.43;;;3.47;;
15814;SDS011;8008;50.024;8.172;2022-09-20T08:07:53;8.02;;;3.13;;
15814;SDS011;8008;50.024;8.172;2022-09-20T08:10:22;8.95;;;3.15;;
15814;SDS011;8008;50.024;8.172;2022-09-20T08:12:51;6.70;;;2.90;;
15814;SDS011;8008;50.024;8.172;2022-09-20T08:15:40;8.70;;;3.08;;
15814;SDS011;8008;50.024;8.172;2022-09-20T08:18:08;7.93;;;3.22;;
15814;SDS011;8008;50.024;8.172;2022-09-20T08:20:37;8.65;;;3.10;;
15814;SDS011;8008;50.024;8.172;2022-09-20T08:23:05;6.47;;;3.13;;
15814;SDS011;8008;50.024;8.172;2022-09-20T08:25:50;8.27;;;3.40;;
15814;SDS011;8008;50.024;8.172;2022-09-20T08:28:18;8.82;;;3.50;;
15814;SDS011;8008;50.024;8.172;2022-09-20T08:30:46;6.07;;;3.17;;
15814;SDS011;8008;50.024;8.172;2022-09-20T08:33:14;9.82;;;3.22;;
15814;SDS011;8008;50.024;8.172;2022-09-20T08:35:41;5.78;;;2.95;;
15814;SDS011;8008;50.024;8.172;2022-09-20T08:38:09;6.10;;;3.17;;
15814;SDS011;8008;50.024;8.172;2022-09-20T08:40:59;6.35;;;2.90;;
15814;SDS011;8008;50.024;8.172;2022-09-20T08:43:31;4.88;;;2.78;;
15814;SDS011;8008;50.024;8.172;2022-09-20T08:46:03;5.32;;;3.00;;
15814;SDS011;8008;50.024;8.172;2022-09-20T08:48:35;5.45;;;3.00;;
15814;SDS011;8008;50.024;8.172;2022-09-20T08:51:03;9.25;;;3.03;;
15814;SDS011;8008;50.024;8.172;2022-09-20T08:53:32;6.25;;;2.90;;
15814;SDS011;8008;50.024;8.172;2022-09-20T08:56:01;6.88;;;2.90;;
15814;SDS011;8008;50.024;8.172;2022-09-20T08:58:30;8.82;;;3.00;;
15814;SDS011;8008;50.024;8.172;2022-09-20T09:00:58;8.30;;;3.28;;
15814;SDS011;8008;50.024;8.172;2022-09-20T09:03:27;10.02;;;3.05;;
15814;SDS011;8008;50.024;8.172;2022-09-20T09:05:55;8.45;;;3.03;;
15814;SDS011;8008;50.024;8.172;2022-09-20T09:08:24;5.95;;;3.03;;
15814;SDS011;8008;50.024;8.172;2022-09-20T09:10:54;7.30;;;3.08;;
15814;SDS011;8008;50.024;8.172;2022-09-20T09:13:27;8.38;;;3.20;;
15814;SDS011;8008;50.024;8.172;2022-09-20T09:15:59;7.78;;;3.20;;
15814;SDS011;8008;50.024;8.172;2022-09-20T09:18:33;6.68;;;2.90;;
15814;SDS011;8008;50.024;8.172;2022-09-20T09:21:03;5.00;;;3.10;;
15814;SDS011;8008;50.024;8.172;2022-09-20T09:23:37;5.72;;;3.13;;
15814;SDS011;8008;50.024;8.172;2022-09-20T09:26:14;5.85;;;2.80;;
15814;SDS011;8008;50.024;8.172;2022-09-20T09:28:46;4.32;;;2.70;;
15814;SDS011;8008;50.024;8.172;2022-09-20T09:31:33;5.63;;;2.90;;
15814;SDS011;8008;50.024;8.172;2022-09-20T09:34:03;5.47;;;2.65;;
15814;SDS011;8008;50.024;8.172;2022-09-20T09:36:31;3.85;;;2.50;;
15814;SDS011;8008;50.024;8.172;2022-09-20T09:39:13;7.57;;;2.83;;
15814;SDS011;8008;50.024;8.172;2022-09-20T09:41:42;4.65;;;2.30;;
15814;SDS011;8008;50.024;8.172;2022-09-20T09:44:20;8.60;;;2.65;;
15814;SDS011;8008;50.024;8.172;2022-09-20T09:46:49;5.68;;;2.47;;
15814;SDS011;8008;50.024;8.172;2022-09-20T09:49:19;6.15;;;2.65;;
15814;SDS011;8008;50.024;8.172;2022-09-20T09:52:02;4.25;;;2.28;;
15814;SDS011;8008;50.024;8.172;2022-09-20T09:54:32;3.83;;;2.63;;
15814;SDS011;8008;50.024;8.172;2022-09-20T09:57:06;2.97;;;2.60;;
15814;SDS011;8008;50.024;8.172;2022-09-20T09:59:46;4.63;;;2.42;;
15814;SDS011;8008;50.024;8.172;2022-09-20T10:02:37;4.85;;;2.60;;
15814;SDS011;8008;50.024;8.172;2022-09-20T10:05:19;4.10;;;2.58;;
15814;SDS011;8008;50.024;8.172;2022-09-20T10:07:52;3.65;;;2.50;;
15814;SDS011;8008;50.024;8.172;2022-09-20T10:10:33;3.72;;;2.67;;
15814;SDS011;8008;50.024;8.172;2022-09-20T10:13:11;7.13;;;2.67;;
15814;SDS011;8008;50.024;8.172;2022-09-20T10:15:48;6.10;;;2.50;;
15814;SDS011;8008;50.024;8.172;2022-09-20T10:18:26;4.18;;;2.50;;
15814;SDS011;8008;50.024;8.172;2022-09-20T10:21:03;3.92;;;2.58;;
15814;SDS011;8008;50.024;8.172;2022-09-20T10:23:39;5.80;;;2.60;;
15814;SDS011;8008;50.024;8.172;2022-09-20T10:26:47;6.85;;;2.47;;
15814;SDS011;8008;50.024;8.172;2022-09-20T10:29:31;6.63;;;2.33;;
15814;SDS011;8008;50.024;8.172;2022-09-20T10:32:11;5.90;;;2.97;;
15814;SDS011;8008;50.024;8.172;2022-09-20T10:37:53;3.92;;;2.63;;
15814;SDS011;8008;50.024;8.172;2022-09-20T10:40:32;3.33;;;2.55;;
15814;SDS011;8008;50.024;8.172;2022-09-20T10:43:26;4.53;;;2.30;;
15814;SDS011;8008;50.024;8.172;2022-09-20T10:46:09;3.85;;;2.10;;
15814;SDS011;8008;50.024;8.172;2022-09-20T10:49:08;4.20;;;2.00;;
15814;SDS011;8008;50.024;8.172;2022-09-20T10:51:52;4.00;;;2.13;;
15814;SDS011;8008;50.024;8.172;2022-09-20T10:54:30;5.32;;;2.10;;
15814;SDS011;8008;50.024;8.172;2022-09-20T10:57:10;6.00;;;2.58;;
15814;SDS011;8008;50.024;8.172;2022-09-20T10:59:53;6.03;;;2.58;;
15814;SDS011;8008;50.024;8.172;2022-09-20T11:02:35;4.18;;;2.42;;
15814;SDS011;8008;50.024;8.172;2022-09-20T11:05:27;5.40;;;2.28;;
15814;SDS011;8008;50.024;8.172;2022-09-20T11:08:05;5.00;;;1.92;;
15814;SDS011;8008;50.024;8.172;2022-09-20T11:10:39;6.20;;;1.83;;
15814;SDS011;8008;50.024;8.172;2022-09-20T11:13:14;5.57;;;1.80;;
15814;SDS011;8008;50.024;8.172;2022-09-20T11:15:50;6.50;;;1.95;;
15814;SDS011;8008;50.024;8.172;2022-09-20T11:18:22;5.88;;;2.00;;
15814;SDS011;8008;50.024;8.172;2022-09-20T11:20:56;3.45;;;1.77;;
15814;SDS011;8008;50.024;8.172;2022-09-20T11:23:35;4.10;;;1.73;;
15814;SDS011;8008;50.024;8.172;2022-09-20T11:26:11;3.38;;;1.52;;
15814;SDS011;8008;50.024;8.172;2022-09-20T11:28:43;4.22;;;1.60;;
15814;SDS011;8008;50.024;8.172;2022-09-20T11:31:16;3.35;;;1.60;;
15814;SDS011;8008;50.024;8.172;2022-09-20T11:33:49;2.33;;;1.40;;
15814;SDS011;8008;50.024;8.172;2022-09-20T11:36:24;2.65;;;1.67;;
15814;SDS011;8008;50.024;8.172;2022-09-20T11:38:59;3.70;;;1.73;;
15814;SDS011;8008;50.024;8.172;2022-09-20T11:41:32;3.88;;;1.63;;
15814;SDS011;8008;50.024;8.172;2022-09-20T11:44:01;4.75;;;1.75;;
15814;SDS011;8008;50.024;8.172;2022-09-20T11:46:34;3.70;;;2.00;;
15814;SDS011;8008;50.024;8.172;2022-09-20T11:49:07;5.90;;;2.10;;
15814;SDS011;8008;50.024;8.172;2022-09-20T11:51:52;4.38;;;1.92;;
15814;SDS011;8008;50.024;8.172;2022-09-20T11:54:56;3.17;;;1.77;;
15814;SDS011;8008;50.024;8.172;2022-09-20T11:57:38;6.85;;;1.88;;
15814;SDS011;8008;50.024;8.172;2022-09-20T12:00:06;3.65;;;1.90;;
15814;SDS011;8008;50.024;8.172;2022-09-20T12:02:40;4.22;;;1.88;;
15814;SDS011;8008;50.024;8.172;2022-09-20T12:05:26;2.78;;;1.60;;
15814;SDS011;8008;50.024;8.172;2022-09-20T12:08:01;5.72;;;2.00;;
15814;SDS011;8008;50.024;8.172;2022-09-20T12:10:32;2.75;;;1.50;;
15814;SDS011;8008;50.024;8.172;2022-09-20T12:13:03;3.90;;;1.90;;
15814;SDS011;8008;50.024;8.172;2022-09-20T12:15:33;3.17;;;1.60;;
15814;SDS011;8008;50.024;8.172;2022-09-20T12:18:25;4.93;;;1.60;;
15814;SDS011;8008;50.024;8.172;2022-09-20T12:21:05;2.92;;;1.63;;
15814;SDS011;8008;50.024;8.172;2022-09-20T12:26:40;4.05;;;1.85;;
15814;SDS011;8008;50.024;8.172;2022-09-20T12:32:31;3.67;;;1.90;;
15814;SDS011;8008;50.024;8.172;2022-09-20T12:38:26;6.88;;;1.83;;
15814;SDS011;8008;50.024;8.172;2022-09-20T12:41:02;2.92;;;1.50;;
15814;SDS011;8008;50.024;8.172;2022-09-20T12:43:34;5.07;;;1.80;;
15814;SDS011;8008;50.024;8.172;2022-09-20T12:46:04;3.50;;;1.52;;
15814;SDS011;8008;50.024;8.172;2022-09-20T12:48:37;3.83;;;1.70;;
15814;SDS011;8008;50.024;8.172;2022-09-20T12:51:15;3.50;;;1.63;;
15814;SDS011;8008;50.024;8.172;2022-09-20T12:54:04;3.50;;;1.65;;
15814;SDS011;8008;50.024;8.172;2022-09-20T12:56:37;2.58;;;1.90;;
15814;SDS011;8008;50.024;8.172;2022-09-20T12:59:17;3.70;;;1.70;;
15814;SDS011;8008;50.024;8.172;2022-09-20T13:01:48;4.13;;;1.70;;
15814;SDS011;8008;50.024;8.172;2022-09-20T13:10:38;2.60;;;1.48;;
15814;SDS011;8008;50.024;8.172;2022-09-20T13:13:14;1.92;;;1.50;;
15814;SDS011;8008;50.024;8.172;2022-09-20T13:15:53;2.40;;;1.80;;
15814;SDS011;8008;50.024;8.172;2022-09-20T13:18:22;2.20;;;1.40;;
15814;SDS011;8008;50.024;8.172;2022-09-20T13:20:53;1.55;;;1.40;;
15814;SDS011;8008;50.024;8.172;2022-09-20T13:23:24;3.08;;;1.23;;
15814;SDS011;8008;50.024;8.172;2022-09-20T13:25:54;2.22;;;1.35;;
15814;SDS011;8008;50.024;8.172;2022-09-20T13:28:27;2.65;;;1.30;;
15814;SDS011;8008;50.024;8.172;2022-09-20T13:33:51;1.35;;;1.15;;
15814;SDS011;8008;50.024;8.172;2022-09-20T13:36:22;3.47;;;1.35;;
15814;SDS011;8008;50.024;8.172;2022-09-20T13:38:54;1.92;;;1.00;;
15814;SDS011;8008;50.024;8.172;2022-09-20T13:41:25;1.65;;;1.02;;
15814;SDS011;8008;50.024;8.172;2022-09-20T13:43:56;0.90;;;0.90;;
15814;SDS011;8008;50.024;8.172;2022-09-20T13:46:27;1.70;;;0.95;;
15814;SDS011;8008;50.024;8.172;2022-09-20T13:48:58;1.50;;;1.02;;
15814;SDS011;8008;50.024;8.172;2022-09-20T13:51:39;1.15;;;1.00;;
15814;SDS011;8008;50.024;8.172;2022-09-20T13:54:23;1.10;;;1.00;;
15814;SDS011;8008;50.024;8.172;2022-09-20T13:56:54;1.80;;;0.90;;
15814;SDS011;8008;50.024;8.172;2022-09-20T13:59:25;2.92;;;1.00;;
15814;SDS011;8008;50.024;8.172;2022-09-20T14:01:59;1.20;;;1.10;;
15814;SDS011;8008;50.024;8.172;2022-09-20T14:04:27;3.40;;;0.98;;
15814;SDS011;8008;50.024;8.172;2022-09-20T14:06:57;1.42;;;0.88;;
15814;SDS011;8008;50.024;8.172;2022-09-20T14:09:27;3.25;;;1.02;;
15814;SDS011;8008;50.024;8.172;2022-09-20T14:12:00;2.15;;;1.05;;
15814;SDS011;8008;50.024;8.172;2022-09-20T14:14:32;1.58;;;1.23;;
15814;SDS011;8008;50.024;8.172;2022-09-20T14:17:03;2.30;;;1.10;;
15814;SDS011;8008;50.024;8.172;2022-09-20T14:19:34;2.08;;;1.05;;
15814;SDS011;8008;50.024;8.172;2022-09-20T14:22:07;2.30;;;1.13;;
15814;SDS011;8008;50.024;8.172;2022-09-20T14:24:53;2.85;;;1.30;;
15814;SDS011;8008;50.024;8.172;2022-09-20T14:27:24;3.03;;;1.00;;
15814;SDS011;8008;50.024;8.172;2022-09-20T14:29:54;2.05;;;1.30;;
15814;SDS011;8008;50.024;8.172;2022-09-20T14:32:27;2.15;;;1.10;;
15814;SDS011;8008;50.024;8.172;2022-09-20T14:35:15;1.35;;;1.10;;
15814;SDS011;8008;50.024;8.172;2022-09-20T14:37:45;2.10;;;1.08;;
15814;SDS011;8008;50.024;8.172;2022-09-20T14:40:17;2.80;;;1.23;;
15814;SDS011;8008;50.024;8.172;2022-09-20T14:42:48;2.28;;;1.13;;
15814;SDS011;8008;50.024;8.172;2022-09-20T14:45:22;1.40;;;1.08;;
15814;SDS011;8008;50.024;8.172;2022-09-20T14:47:53;1.45;;;1.10;;
15814;SDS011;8008;50.024;8.172;2022-09-20T14:50:23;2.70;;;1.40;;
15814;SDS011;8008;50.024;8.172;2022-09-20T14:53:04;1.38;;;1.20;;
15814;SDS011;8008;50.024;8.172;2022-09-20T14:55:58;2.53;;;1.20;;
15814;SDS011;8008;50.024;8.172;2022-09-20T15:01:52;1.85;;;1.10;;
15814;SDS011;8008;50.024;8.172;2022-09-20T15:04:27;3.38;;;1.02;;
15814;SDS011;8008;50.024;8.172;2022-09-20T15:06:59;1.30;;;0.85;;
15814;SDS011;8008;50.024;8.172;2022-09-20T15:09:28;8.77;;;2.45;;
15814;SDS011;8008;50.024;8.172;2022-09-20T15:12:00;2.17;;;1.48;;
15814;SDS011;8008;50.024;8.172;2022-09-20T15:14:29;1.92;;;1.10;;
15814;SDS011;8008;50.024;8.172;2022-09-20T15:17:04;1.23;;;1.00;;
15814;SDS011;8008;50.024;8.172;2022-09-20T15:19:33;1.40;;;0.95;;
15814;SDS011;8008;50.024;8.172;2022-09-20T15:22:01;2.08;;;0.90;;
15814;SDS011;8008;50.024;8.172;2022-09-20T15:24:29;3.13;;;1.27;;
15814;SDS011;8008;50.024;8.172;2022-09-20T15:26:57;3.45;;;1.30;;
15814;SDS011;8008;50.024;8.172;2022-09-20T15:29:25;2.05;;;1.35;;
15814;SDS011;8008;50.024;8.172;2022-09-20T15:31:52;2.63;;;1.02;;
15814;SDS011;8008;50.024;8.172;2022-09-20T15:34:23;3.05;;;1.23;;
15814;SDS011;8008;50.024;8.172;2022-09-20T15:36:51;2.97;;;1.10;;
15814;SDS011;8008;50.024;8.172;2022-09-20T15:39:20;3.90;;;2.17;;
15814;SDS011;8008;50.024;8.172;2022-09-20T15:41:57;3.03;;;2.40;;
15814;SDS011;8008;50.024;8.172;2022-09-20T15:44:27;4.22;;;2.20;;
15814;SDS011;8008;50.024;8.172;2022-09-20T15:46:57;2.10;;;1.90;;
15814;SDS011;8008;50.024;8.172;2022-09-20T15:49:28;4.40;;;2.03;;
15814;SDS011;8008;50.024;8.172;2022-09-20T15:51:56;2.95;;;1.58;;
15814;SDS011;8008;50.024;8.172;2022-09-20T15:54:24;1.63;;;1.30;;
15814;SDS011;8008;50.024;8.172;2022-09-20T15:56:51;1.33;;;0.90;;
15814;SDS011;8008;50.024;8.172;2022-09-20T15:59:19;2.67;;;1.13;;
15814;SDS011;8008;50.024;8.172;2022-09-20T16:01:48;3.65;;;1.27;;
15814;SDS011;8008;50.024;8.172;2022-09-20T16:04:17;2.45;;;1.25;;
15814;SDS011;8008;50.024;8.172;2022-09-20T16:06:48;5.20;;;1.15;;
15814;SDS011;8008;50.024;8.172;2022-09-20T16:09:17;3.33;;;1.38;;
15814;SDS011;8008;50.024;8.172;2022-09-20T16:11:45;4.43;;;1.73;;
15814;SDS011;8008;50.024;8.172;2022-09-20T16:14:13;3.00;;;1.80;;
15814;SDS011;8008;50.024;8.172;2022-09-20T16:16:41;3.92;;;1.50;;
15814;SDS011;8008;50.024;8.172;2022-09-20T16:19:09;4.32;;;1.30;;
15814;SDS011;8008;50.024;8.172;2022-09-20T16:21:43;3.33;;;1.38;;
15814;SDS011;8008;50.024;8.172;2022-09-20T16:24:22;2.67;;;1.30;;
15814;SDS011;8008;50.024;8.172;2022-09-20T16:26:54;2.13;;;1.20;;
15814;SDS011;8008;50.024;8.172;2022-09-20T16:29:22;2.83;;;1.30;;
15814;SDS011;8008;50.024;8.172;2022-09-20T16:31:54;3.03;;;1.50;;
15814;SDS011;8008;50.024;8.172;2022-09-20T16:34:23;5.18;;;1.63;;
15814;SDS011;8008;50.024;8.172;2022-09-20T16:39:59;4.57;;;2.15;;
15814;SDS011;8008;50.024;8.172;2022-09-20T16:42:27;2.78;;;1.70;;
15814;SDS011;8008;50.024;8.172;2022-09-20T16:44:55;3.47;;;1.67;;
15814;SDS011;8008;50.024;8.172;2022-09-20T16:47:24;4.47;;;1.50;;
15814;SDS011;8008;50.024;8.172;2022-09-20T16:49:51;2.47;;;1.10;;
15814;SDS011;8008;50.024;8.172;2022-09-20T16:52:20;2.05;;;1.30;;
15814;SDS011;8008;50.024;8.172;2022-09-20T16:54:49;2.17;;;1.38;;
15814;SDS011;8008;50.024;8.172;2022-09-20T16:57:18;2.53;;;1.30;;
15814;SDS011;8008;50.024;8.172;2022-09-20T16:59:47;2.45;;;1.23;;
15814;SDS011;8008;50.024;8.172;2022-09-20T17:02:17;2.00;;;1.58;;
15814;SDS011;8008;50.024;8.172;2022-09-20T17:04:45;4.22;;;1.30;;
15814;SDS011;8008;50.024;8.172;2022-09-20T17:07:13;1.88;;;1.20;;
15814;SDS011;8008;50.024;8.172;2022-09-20T17:09:41;2.03;;;1.10;;
15814;SDS011;8008;50.024;8.172;2022-09-20T17:12:11;1.70;;;1.10;;
15814;SDS011;8008;50.024;8.172;2022-09-20T17:14:41;2.53;;;1.50;;
15814;SDS011;8008;50.024;8.172;2022-09-20T17:17:10;1.67;;;1.20;;
15814;SDS011;8008;50.024;8.172;2022-09-20T17:19:38;2.47;;;1.17;;
15814;SDS011;8008;50.024;8.172;2022-09-20T17:22:06;1.95;;;1.23;;
15814;SDS011;8008;50.024;8.172;2022-09-20T17:24:34;1.63;;;1.40;;
15814;SDS011;8008;50.024;8.172;2022-09-20T17:27:02;3.40;;;1.70;;
15814;SDS011;8008;50.024;8.172;2022-09-20T17:29:31;2.13;;;1.45;;
15814;SDS011;8008;50.024;8.172;2022-09-20T17:35:17;2.88;;;2.00;;
15814;SDS011;8008;50.024;8.172;2022-09-20T17:37:45;4.22;;;1.90;;
15814;SDS011;8008;50.024;8.172;2022-09-20T17:40:13;1.90;;;1.70;;
15814;SDS011;8008;50.024;8.172;2022-09-20T17:42:41;2.00;;;1.63;;
15814;SDS011;8008;50.024;8.172;2022-09-20T17:45:12;2.33;;;1.42;;
15814;SDS011;8008;50.024;8.172;2022-09-20T17:47:40;1.75;;;1.50;;
15814;SDS011;8008;50.024;8.172;2022-09-20T17:50:09;1.42;;;1.33;;
15814;SDS011;8008;50.024;8.172;2022-09-20T17:52:41;2.50;;;1.23;;
15814;SDS011;8008;50.024;8.172;2022-09-20T17:55:09;1.95;;;1.17;;
15814;SDS011;8008;50.024;8.172;2022-09-20T17:57:37;2.55;;;1.50;;
15814;SDS011;8008;50.024;8.172;2022-09-20T18:00:06;2.50;;;1.27;;
15814;SDS011;8008;50.024;8.172;2022-09-20T18:02:34;1.33;;;1.23;;
15814;SDS011;8008;50.024;8.172;2022-09-20T18:05:03;4.30;;;1.50;;
15814;SDS011;8008;50.024;8.172;2022-09-20T18:07:31;1.95;;;1.58;;
15814;SDS011;8008;50.024;8.172;2022-09-20T18:10:00;3.53;;;1.75;;
15814;SDS011;8008;50.024;8.172;2022-09-20T18:12:29;2.45;;;1.70;;
15814;SDS011;8008;50.024;8.172;2022-09-20T18:14:57;4.18;;;1.70;;
15814;SDS011;8008;50.024;8.172;2022-09-20T18:17:25;3.60;;;1.65;;
15814;SDS011;8008;50.024;8.172;2022-09-20T18:19:53;3.95;;;1.50;;
15814;SDS011;8008;50.024;8.172;2022-09-20T18:22:21;3.92;;;1.70;;
15814;SDS011;8008;50.024;8.172;2022-09-20T18:24:49;5.60;;;3.05;;
15814;SDS011;8008;50.024;8.172;2022-09-20T18:27:18;10.00;;;3.30;;
15814;SDS011;8008;50.024;8.172;2022-09-20T18:29:46;4.35;;;1.80;;
15814;SDS011;8008;50.024;8.172;2022-09-20T18:32:14;1.45;;;1.25;;
15814;SDS011;8008;50.024;8.172;2022-09-20T18:34:42;1.65;;;1.30;;
15814;SDS011;8008;50.024;8.172;2022-09-20T18:37:10;3.00;;;1.60;;
15814;SDS011;8008;50.024;8.172;2022-09-20T18:39:40;2.88;;;1.30;;
15814;SDS011;8008;50.024;8.172;2022-09-20T18:42:08;2.03;;;1.50;;
15814;SDS011;8008;50.024;8.172;2022-09-20T18:44:37;3.42;;;1.50;;
15814;SDS011;8008;50.024;8.172;2022-09-20T18:47:05;3.85;;;1.75;;
15814;SDS011;8008;50.024;8.172;2022-09-20T18:49:33;7.95;;;3.15;;
15814;SDS011;8008;50.024;8.172;2022-09-20T18:52:03;5.82;;;2.80;;
15814;SDS011;8008;50.024;8.172;2022-09-20T18:54:30;5.22;;;2.47;;
15814;SDS011;8008;50.024;8.172;2022-09-20T18:56:59;3.65;;;2.50;;
15814;SDS011;8008;50.024;8.172;2022-09-20T18:59:27;2.50;;;2.25;;
15814;SDS011;8008;50.024;8.172;2022-09-20T19:05:06;2.78;;;1.63;;
15814;SDS011;8008;50.024;8.172;2022-09-20T19:07:51;2.03;;;1.50;;
15814;SDS011;8008;50.024;8.172;2022-09-20T19:10:27;2.15;;;1.60;;
15814;SDS011;8008;50.024;8.172;2022-09-20T19:13:04;1.60;;;1.40;;
15814;SDS011;8008;50.024;8.172;2022-09-20T19:15:48;2.28;;;1.20;;
15814;SDS011;8008;50.024;8.172;2022-09-20T19:18:42;3.05;;;1.98;;
15814;SDS011;8008;50.024;8.172;2022-09-20T19:21:30;2.60;;;1.70;;
15814;SDS011;8008;50.024;8.172;2022-09-20T19:24:09;2.78;;;1.70;;
15814;SDS011;8008;50.024;8.172;2022-09-20T19:26:47;2.83;;;2.10;;
15814;SDS011;8008;50.024;8.172;2022-09-20T19:29:16;3.42;;;2.00;;
15814;SDS011;8008;50.024;8.172;2022-09-20T19:31:46;2.25;;;2.05;;
15814;SDS011;8008;50.024;8.172;2022-09-20T19:34:19;3.22;;;2.10;;
15814;SDS011;8008;50.024;8.172;2022-09-20T19:36:52;4.47;;;2.58;;
15814;SDS011;8008;50.024;8.172;2022-09-20T19:39:31;6.00;;;2.67;;